createdAt,value
2022-08-04T00:00:31.963Z,94.92
2022-08-04T00:01:31.983Z,94.62
2022-08-04T00:02:31.928Z,94.24
2022-08-04T00:03:31.913Z,94.38
2022-08-04T00:04:31.897Z,94.04
2022-08-04T00:05:31.885Z,93.95
2022-08-04T00:06:31.863Z,94.29
2022-08-04T00:07:43.883Z,94.34
2022-08-04T00:08:31.830Z,93.08
2022-08-04T00:09:31.814Z,93.47
2022-08-04T00:10:31.798Z,93.76
2022-08-04T00:11:31.782Z,94.14
2022-08-04T00:12:33.017Z,94.43
2022-08-04T00:13:31.749Z,94.82
2022-08-04T00:14:31.729Z,94.92
2022-08-04T00:15:31.715Z,94.82
2022-08-04T00:16:34.996Z,94.04
2022-08-04T00:17:31.680Z,93.95
2022-08-04T00:18:31.662Z,94.87
2022-08-04T00:19:31.646Z,95.83
2022-08-04T00:20:31.633Z,96.31
2022-08-04T00:21:31.615Z,96.56
2022-08-04T00:22:31.598Z,96.99
2022-08-04T00:24:10.536Z,96.89
2022-08-04T00:24:31.562Z,96.70
2022-08-04T00:25:31.547Z,96.51
2022-08-04T00:26:31.532Z,96.41
2022-08-04T00:27:31.514Z,95.88
2022-08-04T00:28:31.497Z,96.46
2022-08-04T00:29:31.487Z,95.78
2022-08-04T00:30:31.463Z,96.17
2022-08-04T00:31:54.405Z,95.78
2022-08-04T00:32:34.408Z,95.78
2022-08-04T00:33:31.417Z,94.34
2022-08-04T00:34:31.397Z,94.24
2022-08-04T00:35:31.382Z,94.34
2022-08-04T00:36:31.363Z,94.92
2022-08-04T00:37:31.349Z,95.54
2022-08-04T00:38:31.331Z,96.31
2022-08-04T00:39:31.428Z,96.70
2022-08-04T00:40:31.298Z,97.09
2022-08-04T00:41:31.281Z,97.72
2022-08-04T00:42:31.268Z,98.29
2022-08-04T00:43:31.248Z,99.16
2022-08-04T00:44:31.230Z,98.78
2022-08-04T00:45:31.213Z,99.16
2022-08-04T00:46:31.196Z,99.16
2022-08-04T00:47:31.181Z,99.35
2022-08-04T00:48:31.163Z,99.84
2022-08-04T00:49:31.149Z,99.26
2022-08-04T00:50:31.130Z,99.35
2022-08-04T00:51:31.114Z,98.87
2022-08-04T00:52:33.740Z,98.83
2022-08-04T00:53:31.078Z,99.11
2022-08-04T00:54:31.060Z,99.40
2022-08-04T00:55:31.045Z,99.11
2022-08-04T00:56:31.024Z,98.83
2022-08-04T00:57:34.630Z,98.54
2022-08-04T00:58:30.998Z,98.44
2022-08-04T00:59:30.975Z,98.05
2022-08-04T01:00:30.961Z,98.20
2022-08-04T01:01:31.018Z,97.96
2022-08-04T01:02:30.926Z,97.38
2022-08-04T01:03:30.913Z,96.70
2022-08-04T01:04:30.892Z,95.64
2022-08-04T01:05:37.762Z,96.03
2022-08-04T01:06:30.861Z,95.78
2022-08-04T01:07:30.844Z,96.12
2022-08-04T01:08:30.824Z,96.41
2022-08-04T01:09:30.810Z,96.31
2022-08-04T01:10:30.793Z,96.12
2022-08-04T01:11:30.776Z,96.80
2022-08-04T01:12:30.758Z,96.41
2022-08-04T01:13:30.742Z,97.28
2022-08-04T01:14:30.724Z,97.96
2022-08-04T01:15:30.712Z,97.86
2022-08-04T01:16:30.688Z,98.39
2022-08-04T01:17:30.674Z,98.49
2022-08-04T01:18:30.659Z,98.49
2022-08-04T01:19:30.640Z,98.58
2022-08-04T01:20:30.619Z,98.39
2022-08-04T01:21:30.608Z,99.31
2022-08-04T01:22:30.588Z,98.44
2022-08-04T01:23:30.571Z,98.44
2022-08-04T01:24:30.553Z,98.44
2022-08-04T01:25:30.540Z,98.54
2022-08-04T01:26:44.212Z,97.47
2022-08-04T01:27:30.504Z,97.57
2022-08-04T01:28:30.484Z,97.19
2022-08-04T01:29:44.048Z,97.28
2022-08-04T01:30:30.452Z,96.80
2022-08-04T01:31:30.435Z,96.22
2022-08-04T01:32:30.418Z,96.56
2022-08-04T01:33:30.403Z,97.47
2022-08-04T01:34:30.385Z,98.05
2022-08-04T01:35:47.351Z,97.67
2022-08-04T01:36:30.409Z,97.96
2022-08-04T01:37:30.334Z,98.25
2022-08-04T01:38:30.319Z,98.20
2022-08-04T01:39:30.317Z,98.39
2022-08-04T01:40:30.285Z,98.54
2022-08-04T01:41:32.660Z,97.96
2022-08-04T01:42:32.301Z,98.25
2022-08-04T01:43:30.233Z,98.05
2022-08-04T01:44:30.219Z,97.86
2022-08-04T01:45:30.200Z,98.73
2022-08-04T01:46:30.184Z,98.58
2022-08-04T01:47:30.166Z,98.25
2022-08-04T01:48:30.155Z,98.10
2022-08-04T01:49:30.131Z,97.42
2022-08-04T01:50:30.118Z,97.04
2022-08-04T01:51:30.099Z,96.36
2022-08-04T01:52:30.081Z,95.98
2022-08-04T01:53:30.064Z,96.17
2022-08-04T01:54:30.051Z,95.59
2022-08-04T01:55:55.275Z,95.30
2022-08-04T01:56:30.016Z,94.92
2022-08-04T01:57:37.713Z,95.11
2022-08-04T01:58:29.981Z,94.62
2022-08-04T01:59:29.965Z,94.14
2022-08-04T02:00:29.948Z,94.43
2022-08-04T02:01:30.148Z,93.76
2022-08-04T02:02:30.154Z,93.37
2022-08-04T02:04:21.404Z,93.66
2022-08-04T02:04:29.879Z,93.85
2022-08-04T02:06:03.844Z,93.95
2022-08-04T02:06:29.846Z,93.76
2022-08-04T02:07:29.830Z,93.95
2022-08-04T02:08:29.812Z,93.66
2022-08-04T02:09:29.794Z,93.76
2022-08-04T02:10:29.786Z,93.95
2022-08-04T02:11:29.762Z,93.95
2022-08-04T02:12:29.744Z,94.04
2022-08-04T02:13:29.728Z,94.82
2022-08-04T02:14:29.711Z,95.40
2022-08-04T02:15:29.694Z,95.83
2022-08-04T02:16:29.676Z,96.12
2022-08-04T02:17:29.660Z,96.22
2022-08-04T02:18:29.647Z,96.80
2022-08-04T02:19:29.624Z,96.99
2022-08-04T02:20:29.614Z,97.38
2022-08-04T02:21:42.298Z,97.19
2022-08-04T02:22:29.574Z,97.86
2022-08-04T02:23:29.561Z,97.86
2022-08-04T02:24:29.541Z,97.67
2022-08-04T02:25:29.523Z,97.86
2022-08-04T02:26:29.507Z,97.47
2022-08-04T02:27:29.491Z,98.44
2022-08-04T02:28:29.477Z,97.96
2022-08-04T02:29:32.138Z,98.25
2022-08-04T02:30:29.442Z,98.10
2022-08-04T02:31:29.425Z,98.29
2022-08-04T02:32:29.407Z,98.68
2022-08-04T02:33:29.391Z,99.16
2022-08-04T02:34:29.374Z,99.26
2022-08-04T02:35:29.355Z,99.84
2022-08-04T02:36:29.340Z,99.45
2022-08-04T02:37:29.320Z,99.74
2022-08-04T02:38:29.306Z,99.99
2022-08-04T02:39:29.338Z,99.99
2022-08-04T02:40:29.270Z,99.99
2022-08-04T02:41:29.253Z,99.99
2022-08-04T02:42:29.238Z,99.99
2022-08-04T02:43:52.045Z,99.99
2022-08-04T02:44:29.202Z,99.99
2022-08-04T02:45:29.183Z,99.99
2022-08-04T02:46:29.172Z,99.99
2022-08-04T02:48:19.361Z,99.99
2022-08-04T02:48:31.591Z,99.99
2022-08-04T02:49:29.114Z,99.99
2022-08-04T02:50:29.452Z,99.99
2022-08-04T02:51:29.085Z,99.99
2022-08-04T02:52:29.068Z,99.65
2022-08-04T02:53:29.048Z,99.35
2022-08-04T02:54:32.681Z,99.45
2022-08-04T02:55:29.018Z,99.07
2022-08-04T02:56:28.999Z,98.49
2022-08-04T02:57:28.981Z,98.97
2022-08-04T02:58:28.964Z,99.07
2022-08-04T02:59:28.947Z,99.45
2022-08-04T03:00:28.929Z,99.74
2022-08-04T03:01:28.974Z,99.84
2022-08-04T03:02:28.896Z,99.99
2022-08-04T03:03:28.875Z,99.99
2022-08-04T03:04:28.862Z,99.99
2022-08-04T03:05:28.843Z,99.99
2022-08-04T03:06:28.827Z,99.99
2022-08-04T03:07:28.807Z,99.99
2022-08-04T03:08:28.791Z,99.99
2022-08-04T03:09:28.772Z,99.99
2022-08-04T03:10:29.523Z,99.84
2022-08-04T03:11:28.741Z,99.79
2022-08-04T03:12:28.727Z,99.99
2022-08-04T03:13:28.703Z,99.99
2022-08-04T03:14:28.687Z,99.99
2022-08-04T03:15:28.668Z,99.99
2022-08-04T03:16:30.391Z,99.99
2022-08-04T03:17:28.639Z,99.99
2022-08-04T03:18:28.619Z,99.99
2022-08-04T03:19:28.600Z,99.99
2022-08-04T03:20:28.583Z,99.99
2022-08-04T03:21:28.566Z,99.99
2022-08-04T03:22:28.551Z,99.99
2022-08-04T03:23:28.531Z,99.99
2022-08-04T03:24:28.514Z,99.99
2022-08-04T03:25:28.501Z,99.99
2022-08-04T03:26:28.484Z,99.99
2022-08-04T03:27:28.462Z,99.99
2022-08-04T03:28:28.447Z,99.99
2022-08-04T03:29:37.140Z,99.99
2022-08-04T03:30:28.414Z,99.99
2022-08-04T03:31:28.394Z,99.99
2022-08-04T03:32:28.378Z,99.99
2022-08-04T03:33:28.358Z,99.99
2022-08-04T03:34:28.342Z,99.99
2022-08-04T03:35:28.323Z,99.99
2022-08-04T03:36:31.566Z,99.99
2022-08-04T03:37:28.291Z,99.99
2022-08-04T03:38:28.272Z,99.99
2022-08-04T03:39:28.335Z,99.99
2022-08-04T03:40:28.244Z,99.99
2022-08-04T03:41:51.959Z,99.99
2022-08-04T03:42:28.203Z,99.99
2022-08-04T03:43:59.262Z,99.99
2022-08-04T03:44:28.173Z,99.99
2022-08-04T03:45:28.150Z,99.99
2022-08-04T03:46:28.134Z,99.99
2022-08-04T03:47:28.118Z,99.99
2022-08-04T03:48:28.098Z,99.99
2022-08-04T03:49:28.080Z,99.99
2022-08-04T03:50:28.065Z,99.99
2022-08-04T03:51:35.365Z,99.99
2022-08-04T03:52:28.029Z,99.99
2022-08-04T03:53:28.014Z,99.99
2022-08-04T03:54:27.993Z,99.99
2022-08-04T03:55:27.975Z,99.99
2022-08-04T03:56:27.959Z,99.99
2022-08-04T03:57:27.941Z,99.99
2022-08-04T03:58:33.745Z,99.99
2022-08-04T03:59:27.907Z,99.99
2022-08-04T04:00:27.890Z,99.99
2022-08-04T04:01:27.878Z,99.99
2022-08-04T04:02:27.896Z,99.99
2022-08-04T04:03:28.822Z,99.99
2022-08-04T04:04:27.822Z,99.99
2022-08-04T04:05:27.803Z,99.99
2022-08-04T04:06:27.785Z,99.99
2022-08-04T04:07:35.673Z,99.99
2022-08-04T04:08:27.750Z,99.99
2022-08-04T04:09:28.755Z,99.99
2022-08-04T04:10:28.940Z,99.99
2022-08-04T04:11:27.698Z,99.99
2022-08-04T04:12:27.681Z,99.99
2022-08-04T04:13:27.661Z,99.99
2022-08-04T04:14:27.647Z,99.99
2022-08-04T04:15:27.632Z,99.99
2022-08-04T04:16:27.612Z,99.99
2022-08-04T04:17:27.593Z,99.99
2022-08-04T04:18:27.574Z,99.99
2022-08-04T04:19:27.560Z,99.99
2022-08-04T04:20:27.542Z,99.99
2022-08-04T04:21:27.525Z,99.99
2022-08-04T04:22:27.510Z,99.99
2022-08-04T04:23:27.487Z,99.99
2022-08-04T04:24:33.602Z,99.99
2022-08-04T04:25:27.458Z,99.99
2022-08-04T04:26:27.437Z,99.99
2022-08-04T04:27:27.424Z,99.99
2022-08-04T04:28:45.220Z,99.99
2022-08-04T04:29:27.394Z,99.99
2022-08-04T04:30:27.368Z,99.99
2022-08-04T04:31:27.347Z,99.99
2022-08-04T04:32:27.331Z,99.99
2022-08-04T04:33:27.311Z,99.99
2022-08-04T04:34:27.296Z,99.99
2022-08-04T04:35:27.281Z,99.99
2022-08-04T04:36:27.261Z,99.99
2022-08-04T04:37:27.245Z,99.99
2022-08-04T04:38:27.226Z,99.99
2022-08-04T04:39:27.292Z,99.99
2022-08-04T04:40:27.191Z,99.99
2022-08-04T04:41:27.173Z,99.99
2022-08-04T04:42:27.159Z,99.99
2022-08-04T04:43:50.369Z,99.99
2022-08-04T04:44:30.551Z,99.99
2022-08-04T04:45:27.102Z,99.99
2022-08-04T04:46:27.087Z,99.99
2022-08-04T04:47:43.084Z,99.99
2022-08-04T04:48:27.061Z,99.99
2022-08-04T04:49:27.036Z,99.99
2022-08-04T04:50:30.051Z,99.99
2022-08-04T04:51:27.001Z,99.99
2022-08-04T04:52:26.984Z,99.99
2022-08-04T04:53:26.964Z,99.99
2022-08-04T04:54:26.948Z,99.99
2022-08-04T04:55:26.930Z,99.99
2022-08-04T04:56:26.913Z,99.99
2022-08-04T04:57:54.056Z,99.99
2022-08-04T04:58:26.883Z,99.99
2022-08-04T04:59:26.863Z,99.99
2022-08-04T05:00:26.841Z,99.99
2022-08-04T05:01:26.824Z,99.99
2022-08-04T05:02:26.811Z,99.99
2022-08-04T05:03:26.791Z,99.99
2022-08-04T05:04:26.773Z,99.99
2022-08-04T05:05:26.756Z,99.99
2022-08-04T05:06:26.738Z,99.99
2022-08-04T05:07:26.720Z,99.99
2022-08-04T05:08:44.293Z,99.99
2022-08-04T05:09:26.685Z,99.99
2022-08-04T05:10:26.669Z,99.99
2022-08-04T05:11:26.653Z,99.99
2022-08-04T05:14:32.933Z,99.99
2022-08-04T05:14:37.971Z,99.99
2022-08-04T05:14:38.861Z,99.99
2022-08-04T05:15:26.583Z,99.99
2022-08-04T05:16:26.566Z,99.99
2022-08-04T05:17:26.559Z,99.99
2022-08-04T05:18:26.535Z,99.99
2022-08-04T05:19:26.518Z,99.99
2022-08-04T05:20:26.495Z,99.99
2022-08-04T05:21:26.481Z,99.99
2022-08-04T05:22:26.464Z,99.99
2022-08-04T05:23:26.447Z,99.99
2022-08-04T05:24:27.440Z,99.99
2022-08-04T05:25:26.410Z,99.99
2022-08-04T05:26:26.394Z,99.99
2022-08-04T05:27:26.375Z,99.99
2022-08-04T05:28:26.361Z,99.99
2022-08-04T05:29:28.856Z,99.99
2022-08-04T05:30:26.323Z,99.99
2022-08-04T05:31:26.312Z,99.99
2022-08-04T05:32:26.289Z,99.99
2022-08-04T05:33:29.125Z,99.99
2022-08-04T05:34:26.259Z,99.99
2022-08-04T05:35:53.104Z,99.99
2022-08-04T05:36:40.559Z,99.99
2022-08-04T05:37:28.337Z,99.99
2022-08-04T05:38:26.195Z,99.99
2022-08-04T05:39:28.880Z,99.99
2022-08-04T05:40:26.157Z,99.99
2022-08-04T05:41:32.366Z,99.99
2022-08-04T05:42:26.124Z,99.99
2022-08-04T05:43:26.106Z,99.94
2022-08-04T05:44:26.089Z,99.99
2022-08-04T05:45:26.068Z,99.94
2022-08-04T05:46:26.051Z,99.36
2022-08-04T05:47:26.037Z,99.36
2022-08-04T05:48:26.019Z,99.41
2022-08-04T05:49:26.002Z,99.21
2022-08-04T05:50:25.985Z,99.50
2022-08-04T05:51:25.968Z,99.36
2022-08-04T05:52:25.949Z,99.41
2022-08-04T05:53:25.932Z,99.21
2022-08-04T05:54:25.915Z,99.31
2022-08-04T05:55:56.620Z,99.21
2022-08-04T05:56:25.880Z,99.50
2022-08-04T05:57:25.863Z,98.83
2022-08-04T05:58:25.851Z,98.83
2022-08-04T05:59:25.941Z,98.35
2022-08-04T06:00:41.401Z,98.83
2022-08-04T06:01:25.858Z,99.02
2022-08-04T06:02:25.824Z,99.36
2022-08-04T06:03:25.768Z,98.73
2022-08-04T06:04:25.743Z,98.20
2022-08-04T06:05:25.728Z,98.30
2022-08-04T06:06:25.713Z,98.30
2022-08-04T06:07:25.696Z,98.00
2022-08-04T06:08:25.678Z,97.42
2022-08-04T06:09:25.664Z,96.56
2022-08-04T06:10:29.585Z,97.62
2022-08-04T06:11:25.629Z,97.14
2022-08-04T06:12:25.611Z,97.23
2022-08-04T06:13:49.244Z,96.94
2022-08-04T06:14:25.577Z,96.70
2022-08-04T06:15:25.562Z,96.36
2022-08-04T06:16:28.746Z,96.70
2022-08-04T06:19:56.484Z,96.02
2022-08-04T06:19:58.714Z,96.31
2022-08-04T06:20:02.738Z,96.02
2022-08-04T06:20:25.711Z,95.64
2022-08-04T06:21:25.463Z,96.31
2022-08-04T06:22:25.453Z,96.41
2022-08-04T06:23:25.428Z,96.51
2022-08-04T06:24:25.409Z,96.51
2022-08-04T06:25:25.394Z,97.86
2022-08-04T06:26:25.378Z,97.23
2022-08-04T06:27:25.374Z,98.39
2022-08-04T06:28:25.342Z,98.00
2022-08-04T06:29:25.327Z,98.78
2022-08-04T06:30:25.310Z,98.58
2022-08-04T06:32:30.648Z,98.10
2022-08-04T06:32:31.311Z,97.42
2022-08-04T06:33:25.262Z,97.33
2022-08-04T06:34:25.245Z,97.52
2022-08-04T06:35:25.230Z,97.13
2022-08-04T06:36:25.209Z,97.33
2022-08-04T06:37:43.179Z,97.18
2022-08-04T06:38:25.178Z,96.99
2022-08-04T06:39:25.220Z,95.73
2022-08-04T06:40:31.401Z,95.92
2022-08-04T06:41:25.128Z,94.37
2022-08-04T06:42:25.113Z,94.57
2022-08-04T06:43:25.096Z,95.73
2022-08-04T06:44:26.388Z,94.86
2022-08-04T06:45:25.065Z,93.41
2022-08-04T06:46:25.050Z,93.12
2022-08-04T06:47:25.035Z,92.54
2022-08-04T06:48:33.403Z,92.54
2022-08-04T06:49:24.999Z,92.63
2022-08-04T06:51:28.656Z,93.79
2022-08-04T06:51:35.538Z,94.18
2022-08-04T06:52:24.950Z,93.99
2022-08-04T06:53:24.932Z,94.09
2022-08-04T06:54:24.916Z,93.89
2022-08-04T06:55:24.903Z,94.09
2022-08-04T06:56:24.883Z,93.51
2022-08-04T06:57:24.867Z,93.60
2022-08-04T06:58:24.850Z,93.99
2022-08-04T06:59:24.834Z,94.42
2022-08-04T07:00:24.850Z,93.79
2022-08-04T07:01:24.879Z,94.62
2022-08-04T07:02:24.783Z,93.65
2022-08-04T07:03:24.770Z,93.55
2022-08-04T07:04:24.753Z,92.77
2022-08-04T07:05:24.735Z,93.35
2022-08-04T07:06:24.721Z,92.49
2022-08-04T07:07:36.747Z,92.58
2022-08-04T07:08:24.686Z,92.19
2022-08-04T07:09:24.671Z,91.52
2022-08-04T07:10:24.746Z,91.90
2022-08-04T07:11:24.639Z,90.84
2022-08-04T07:12:24.620Z,89.68
2022-08-04T07:13:24.606Z,89.33
2022-08-04T07:14:24.591Z,88.75
2022-08-04T07:15:24.577Z,90.01
2022-08-04T07:16:30.546Z,89.62
2022-08-04T07:17:24.543Z,89.04
2022-08-04T07:18:24.523Z,90.50
2022-08-04T07:19:24.516Z,89.82
2022-08-04T07:20:34.087Z,88.89
2022-08-04T07:21:24.478Z,89.28
2022-08-04T07:22:25.122Z,88.89
2022-08-04T07:23:24.453Z,89.09
2022-08-04T07:24:24.427Z,87.92
2022-08-04T07:25:58.761Z,87.92
2022-08-04T07:26:24.399Z,87.44
2022-08-04T07:27:47.318Z,87.73
2022-08-04T07:28:24.379Z,87.73
2022-08-04T07:29:24.348Z,88.35
2022-08-04T07:30:25.007Z,88.84
2022-08-04T07:31:34.111Z,88.06
2022-08-04T07:32:24.303Z,87.38
2022-08-04T07:33:24.287Z,88.65
2022-08-04T07:34:24.269Z,87.68
2022-08-04T07:36:10.462Z,87.77
2022-08-04T07:36:24.237Z,87.87
2022-08-04T07:37:24.222Z,87.48
2022-08-04T07:38:27.802Z,87.48
2022-08-04T07:39:28.319Z,87.19
2022-08-04T07:40:24.183Z,86.99
2022-08-04T07:41:39.522Z,86.32
2022-08-04T07:42:24.144Z,86.51
2022-08-04T07:43:24.132Z,86.71
2022-08-04T07:44:24.110Z,86.61
2022-08-04T07:45:24.096Z,87.62
2022-08-04T07:46:24.081Z,87.43
2022-08-04T07:47:25.624Z,87.52
2022-08-04T07:48:24.048Z,87.48
2022-08-04T07:49:54.869Z,86.94
2022-08-04T07:50:24.018Z,87.82
2022-08-04T07:51:24.002Z,88.59
2022-08-04T07:52:23.985Z,89.27
2022-08-04T07:53:55.465Z,86.46
2022-08-04T07:54:23.957Z,86.26
2022-08-04T07:55:23.942Z,86.26
2022-08-04T07:56:23.923Z,86.16
2022-08-04T07:57:40.686Z,86.65
2022-08-04T07:58:24.646Z,87.23
2022-08-04T07:59:23.881Z,86.99
2022-08-04T08:00:23.864Z,86.89
2022-08-04T08:01:23.848Z,86.89
2022-08-04T08:02:23.835Z,84.94
2022-08-04T08:03:23.939Z,82.85
2022-08-04T08:04:23.798Z,85.18
2022-08-04T08:05:23.783Z,83.53
2022-08-04T08:06:33.048Z,82.31
2022-08-04T08:07:24.025Z,79.39
2022-08-04T08:08:23.738Z,78.91
2022-08-04T08:09:23.731Z,79.30
2022-08-04T08:10:23.745Z,78.71
2022-08-04T08:11:23.698Z,78.61
2022-08-04T08:12:37.269Z,78.27
2022-08-04T08:13:23.670Z,78.36
2022-08-04T08:14:23.650Z,75.84
2022-08-04T08:15:23.637Z,75.58
2022-08-04T08:16:23.621Z,75.87
2022-08-04T08:17:23.946Z,77.72
2022-08-04T08:18:23.592Z,77.82
2022-08-04T08:19:23.579Z,76.88
2022-08-04T08:20:29.429Z,74.51
2022-08-04T08:21:23.549Z,75.52
2022-08-04T08:22:23.532Z,76.30
2022-08-04T08:23:23.519Z,76.20
2022-08-04T08:24:23.508Z,76.30
2022-08-04T08:25:23.487Z,77.56
2022-08-04T08:26:23.472Z,75.23
2022-08-04T08:27:23.809Z,73.28
2022-08-04T08:28:23.443Z,74.65
2022-08-04T08:29:23.434Z,74.55
2022-08-04T08:30:23.425Z,74.65
2022-08-04T08:31:57.506Z,74.65
2022-08-04T08:32:23.391Z,73.38
2022-08-04T08:33:23.373Z,73.51
2022-08-04T08:34:27.549Z,73.51
2022-08-04T08:35:23.349Z,74.19
2022-08-04T08:36:23.334Z,73.71
2022-08-04T08:37:23.729Z,74.39
2022-08-04T08:38:23.301Z,73.84
2022-08-04T08:39:24.850Z,73.35
2022-08-04T08:40:40.063Z,73.45
2022-08-04T08:41:23.259Z,74.82
2022-08-04T08:42:23.243Z,72.96
2022-08-04T08:44:05.010Z,71.80
2022-08-04T08:44:30.220Z,71.41
2022-08-04T08:45:23.205Z,72.57
2022-08-04T08:46:45.201Z,71.50
2022-08-04T08:47:23.518Z,70.66
2022-08-04T08:48:23.161Z,69.20
2022-08-04T08:50:02.980Z,69.78
2022-08-04T08:50:23.133Z,70.27
2022-08-04T08:51:23.130Z,70.27
2022-08-04T08:53:00.617Z,69.29
2022-08-04T08:53:23.093Z,69.59
2022-08-04T08:54:23.084Z,68.90
2022-08-04T08:55:23.065Z,68.26
2022-08-04T08:56:23.072Z,68.55
2022-08-04T08:57:23.314Z,67.57
2022-08-04T08:58:23.029Z,67.86
2022-08-04T08:59:23.027Z,66.69
2022-08-04T09:00:22.995Z,66.50
2022-08-04T09:01:23.048Z,66.44
2022-08-04T09:02:22.969Z,67.18
2022-08-04T09:03:22.955Z,66.05
2022-08-04T09:04:25.124Z,66.63
2022-08-04T09:05:22.931Z,64.19
2022-08-04T09:06:22.983Z,65.17
2022-08-04T09:07:23.282Z,68.97
2022-08-04T09:08:22.887Z,69.10
2022-08-04T09:09:22.876Z,66.37
2022-08-04T09:10:22.859Z,65.30
2022-08-04T09:11:22.847Z,65.98
2022-08-04T09:12:25.896Z,65.39
2022-08-04T09:13:22.820Z,66.66
2022-08-04T09:14:22.807Z,65.39
2022-08-04T09:15:22.793Z,65.39
2022-08-04T09:16:22.857Z,66.56
2022-08-04T09:17:23.173Z,66.66
2022-08-04T09:18:22.756Z,65.49
2022-08-04T09:19:38.637Z,65.98
2022-08-04T09:20:22.728Z,66.27
2022-08-04T09:21:22.715Z,65.20
2022-08-04T09:22:22.700Z,64.71
2022-08-04T09:23:22.687Z,65.20
2022-08-04T09:24:36.271Z,63.83
2022-08-04T09:25:22.664Z,65.23
2022-08-04T09:26:22.689Z,64.84
2022-08-04T09:27:23.033Z,63.87
2022-08-04T09:28:43.791Z,63.67
2022-08-04T09:29:22.613Z,64.26
2022-08-04T09:30:22.598Z,63.87
2022-08-04T09:31:22.590Z,63.09
2022-08-04T09:32:22.566Z,63.67
2022-08-04T09:33:44.179Z,63.57
2022-08-04T09:34:22.542Z,62.79
2022-08-04T09:35:22.537Z,64.55
2022-08-04T09:36:25.825Z,63.67
2022-08-04T09:37:23.007Z,63.48
2022-08-04T09:38:22.492Z,62.11
2022-08-04T09:39:22.510Z,63.60
2022-08-04T09:40:52.323Z,64.87
2022-08-04T09:41:48.848Z,63.51
2022-08-04T09:42:25.678Z,65.17
2022-08-04T09:43:22.675Z,63.83
2022-08-04T09:44:49.270Z,62.36
2022-08-04T09:45:26.541Z,62.36
2022-08-04T09:46:22.390Z,62.26
2022-08-04T09:47:22.380Z,62.36
2022-08-04T09:48:22.371Z,62.36
2022-08-04T09:49:22.356Z,63.67
2022-08-04T09:50:22.342Z,62.49
2022-08-04T09:51:22.330Z,62.46
2022-08-04T09:52:22.597Z,63.64
2022-08-04T09:53:22.303Z,64.25
2022-08-04T09:54:30.124Z,63.67
2022-08-04T09:55:22.277Z,63.76
2022-08-04T09:56:22.264Z,60.44
2022-08-04T09:57:22.253Z,61.25
2022-08-04T09:58:22.240Z,61.93
2022-08-04T09:59:22.227Z,60.47
2022-08-04T10:00:23.719Z,58.80
2022-08-04T10:01:23.684Z,58.70
2022-08-04T10:02:22.574Z,59.59
2022-08-04T10:03:22.242Z,59.00
2022-08-04T10:04:22.164Z,59.49
2022-08-04T10:05:22.171Z,59.29
2022-08-04T10:06:22.142Z,58.41
2022-08-04T10:07:22.405Z,60.37
2022-08-04T10:08:22.115Z,61.18
2022-08-04T10:09:22.105Z,59.81
2022-08-04T10:10:22.097Z,59.32
2022-08-04T10:11:22.077Z,60.30
2022-08-04T10:12:22.066Z,60.50
2022-08-04T10:13:22.062Z,58.64
2022-08-04T10:14:23.245Z,59.42
2022-08-04T10:15:22.026Z,59.55
2022-08-04T10:16:22.017Z,60.33
2022-08-04T10:17:22.306Z,60.63
2022-08-04T10:18:21.992Z,57.49
2022-08-04T10:19:21.979Z,58.67
2022-08-04T10:20:34.016Z,58.17
2022-08-04T10:21:21.966Z,57.36
2022-08-04T10:22:28.402Z,57.07
2022-08-04T10:23:21.945Z,57.66
2022-08-04T10:24:21.932Z,57.36
2022-08-04T10:26:05.965Z,57.36
2022-08-04T10:26:21.898Z,59.81
2022-08-04T10:27:22.092Z,58.64
2022-08-04T10:28:21.874Z,58.93
2022-08-04T10:29:21.864Z,58.05
2022-08-04T10:30:21.851Z,57.46
2022-08-04T10:31:21.836Z,58.05
2022-08-04T10:32:21.826Z,57.66
2022-08-04T10:33:21.820Z,56.77
2022-08-04T10:34:21.803Z,57.59
2022-08-04T10:35:21.791Z,57.29
2022-08-04T10:36:21.777Z,58.76
2022-08-04T10:37:22.079Z,57.81
2022-08-04T10:38:26.527Z,57.49
2022-08-04T10:39:42.157Z,57.20
2022-08-04T10:40:21.740Z,58.40
2022-08-04T10:41:21.717Z,56.05
2022-08-04T10:42:21.708Z,57.62
2022-08-04T10:43:22.779Z,56.93
2022-08-04T10:44:21.682Z,57.62
2022-08-04T10:45:21.667Z,57.91
2022-08-04T10:46:21.661Z,56.83
2022-08-04T10:47:21.869Z,55.76
2022-08-04T10:48:34.421Z,55.76
2022-08-04T10:49:21.722Z,57.32
2022-08-04T10:50:21.619Z,55.16
2022-08-04T10:51:21.596Z,56.73
2022-08-04T10:52:21.592Z,56.44
2022-08-04T10:53:21.575Z,56.15
2022-08-04T10:54:21.563Z,56.15
2022-08-04T10:55:21.551Z,56.71
2022-08-04T10:56:21.543Z,56.90
2022-08-04T10:57:21.732Z,58.47
2022-08-04T10:58:21.517Z,57.20
2022-08-04T10:59:21.506Z,57.46
2022-08-04T11:00:21.491Z,57.46
2022-08-04T11:01:50.834Z,57.66
2022-08-04T11:02:21.468Z,59.39
2022-08-04T11:03:21.578Z,59.59
2022-08-04T11:04:26.761Z,59.29
2022-08-04T11:05:21.431Z,58.41
2022-08-04T11:06:21.426Z,59.29
2022-08-04T11:07:21.573Z,60.44
2022-08-04T11:08:21.745Z,61.12
2022-08-04T11:09:21.382Z,61.61
2022-08-04T11:10:21.368Z,60.53
2022-08-04T11:11:21.361Z,59.46
2022-08-04T11:12:21.345Z,58.87
2022-08-04T11:13:22.049Z,58.75
2022-08-04T11:14:21.323Z,59.75
2022-08-04T11:15:21.307Z,60.53
2022-08-04T11:16:21.295Z,59.07
2022-08-04T11:17:21.587Z,58.06
2022-08-04T11:18:21.271Z,57.89
2022-08-04T11:19:21.258Z,59.27
2022-08-04T11:20:36.844Z,61.15
2022-08-04T11:21:21.238Z,59.29
2022-08-04T11:22:21.222Z,57.82
2022-08-04T11:23:21.206Z,58.12
2022-08-04T11:24:21.203Z,58.22
2022-08-04T11:25:21.183Z,59.09
2022-08-04T11:26:21.171Z,57.04
2022-08-04T11:27:21.358Z,57.63
2022-08-04T11:28:21.145Z,57.04
2022-08-04T11:29:21.131Z,57.76
2022-08-04T11:30:21.122Z,56.29
2022-08-04T11:31:21.112Z,55.63
2022-08-04T11:32:21.105Z,54.94
2022-08-04T11:33:21.081Z,54.25
2022-08-04T11:34:21.075Z,53.86
2022-08-04T11:35:21.063Z,55.33
2022-08-04T11:36:21.051Z,54.16
2022-08-04T11:37:21.035Z,54.85
2022-08-04T11:38:21.020Z,54.16
2022-08-04T11:39:21.077Z,55.01
2022-08-04T11:40:20.998Z,55.31
2022-08-04T11:41:20.985Z,55.31
2022-08-04T11:42:20.973Z,55.80
2022-08-04T11:43:58.627Z,57.46
2022-08-04T11:44:20.951Z,56.09
2022-08-04T11:45:20.935Z,56.38
2022-08-04T11:46:20.923Z,57.07
2022-08-04T11:47:21.211Z,58.47
2022-08-04T11:48:20.898Z,57.46
2022-08-04T11:49:20.886Z,57.39
2022-08-04T11:50:20.878Z,56.31
2022-08-04T11:51:20.861Z,56.21
2022-08-04T11:52:20.854Z,55.33
2022-08-04T11:53:20.836Z,55.04
2022-08-04T11:54:20.826Z,54.55
2022-08-04T11:55:20.814Z,54.16
2022-08-04T11:56:20.803Z,54.94
2022-08-04T11:57:21.105Z,55.73
2022-08-04T11:58:20.779Z,55.63
2022-08-04T11:59:20.764Z,56.02
2022-08-04T12:00:20.756Z,55.33
2022-08-04T12:01:21.733Z,54.03
2022-08-04T12:02:21.373Z,55.80
2022-08-04T12:03:20.718Z,55.60
2022-08-04T12:04:20.706Z,55.51
2022-08-04T12:05:33.612Z,55.41
2022-08-04T12:06:20.682Z,57.26
2022-08-04T12:07:30.637Z,56.19
2022-08-04T12:08:20.658Z,55.21
2022-08-04T12:09:20.640Z,55.70
2022-08-04T12:10:41.551Z,55.11
2022-08-04T12:11:20.618Z,54.03
2022-08-04T12:12:20.614Z,53.25
2022-08-04T12:13:20.595Z,53.94
2022-08-04T12:14:20.583Z,55.11
2022-08-04T12:15:20.578Z,54.91
2022-08-04T12:16:20.556Z,54.72
2022-08-04T12:17:20.754Z,54.72
2022-08-04T12:18:20.537Z,54.21
2022-08-04T12:19:20.531Z,54.30
2022-08-04T12:20:32.045Z,54.40
2022-08-04T12:21:20.493Z,54.60
2022-08-04T12:22:20.483Z,54.60
2022-08-04T12:23:22.934Z,54.69
2022-08-04T12:24:20.456Z,54.11
2022-08-04T12:25:20.445Z,53.72
2022-08-04T12:26:20.434Z,54.30
2022-08-04T12:27:20.722Z,54.62
2022-08-04T12:28:20.409Z,55.70
2022-08-04T12:29:20.394Z,55.60
2022-08-04T12:30:58.211Z,55.31
2022-08-04T12:31:20.374Z,55.31
2022-08-04T12:32:20.366Z,54.06
2022-08-04T12:33:20.346Z,53.84
2022-08-04T12:34:20.334Z,53.67
2022-08-04T12:35:20.322Z,53.77
2022-08-04T12:36:21.354Z,54.75
2022-08-04T12:37:22.197Z,53.38
2022-08-04T12:38:20.284Z,55.33
2022-08-04T12:39:20.349Z,54.36
2022-08-04T12:40:29.830Z,55.33
2022-08-04T12:41:20.252Z,55.46
2022-08-04T12:42:21.634Z,53.99
2022-08-04T12:43:20.222Z,53.47
2022-08-04T12:44:36.512Z,54.16
2022-08-04T12:45:20.197Z,55.14
2022-08-04T12:46:20.194Z,55.14
2022-08-04T12:47:28.438Z,55.60
2022-08-04T12:48:21.530Z,57.17
2022-08-04T12:49:20.153Z,56.95
2022-08-04T12:50:20.138Z,57.92
2022-08-04T12:52:06.155Z,57.34
2022-08-04T12:52:20.114Z,56.92